Portada
METAR-TAF:

METAR-TAF

Aeroports :

Qaisumah, Aràbia Saudita

latitud: 28-19N, longitud: 046-07E, altitud: 358 m

Observació

L'informe es va fer fa 51 minuts, a les 06:00 UTC
Vent 10 kt del Nord-Oest
Temperatura 39°C
Humitat 12%
Pressió 1001 hPa
Visibilitat 10 km o més
sense núvols per sota de 1500 mi sense presència de cumulonimbus.

METAR: OEPA 200600Z 32010KT CAVOK 39/04 Q1001 NOSIG

Hora: 09:51 (06:51 UTC)

Pronòstic

L'informe es va fer fa 8 hores i 11 minuts, a les 22:40 UTC
Pronòstic vàlid del 20 a les 00 UTC al 21 a les 06 UTC
Vent 9 kt del Oest
Visibilitat 10 km o més
sense núvols per sota de 1500 mi sense presència de cumulonimbus.
Evolucionant progressivament
l' 20 a les 09 UTC al 20 a les 11 UTC
Vent 10 kt del Nord/Nord-Oest
Evolucionant progressivament
l' 20 a les 16 UTC al 20 a les 18 UTC
Vent 3 kt amb direcció variable

TAF: OEPA 192240Z 2000/2106 28009KT CAVOK BECMG 2009/2011 34010KT BECMG 2016/2018 VRB03KT

Observacions i pronòstics meteorològics de més de 4000 aeroports (METAR i TAF).

Les estacions disponibles són els punts grocs i vermells al mapa.

Posi el ratolí al punt desitjat per veure el nom de l'estació.

Feu clic per veure les observacions i els pronòstics meteorològics.

Per canviar el mapa: feu clic els botons verds amb una creu de color negre per apropar; al botó verd amb un guió per allunyar la imatge; o en les fletxes verdes per a mapes adjacents.


METAR-TAF: